Time;durP1;ratioP1;P1;durP2;ratioP2;P2;SDS_P1;SDS_P2;PMS_P1;PMS_P2;Temp;Humidity;BMP_temperature;BMP_pressure;BME280_temperature;BME280_humidity;BME280_pressure;Samples;Min_cycle;Max_cycle;Signal;HPM_P1;HPM_P2
2022/12/03 00:00:21;;;;;;;30.67;24.00;;;;;;;-0.56;100.00;97221.38;4976293;28;20688;-72
2022/12/03 00:02:48;;;;;;;32.63;25.00;;;;;;;-0.48;100.00;97215.63;5025923;28;20243;-72
2022/12/03 00:05:16;;;;;;;29.10;24.10;;;;;;;-0.40;100.00;97228.03;5026415;28;20243;-71
2022/12/03 00:07:45;;;;;;;27.77;22.43;;;;;;;-0.36;100.00;97224.31;5001535;28;20219;-72
2022/12/03 00:10:13;;;;;;;30.83;24.20;;;;;;;-0.41;100.00;97222.03;5029289;28;20833;-72
2022/12/03 00:12:41;;;;;;;28.43;22.33;;;;;;;-0.31;100.00;97222.19;5029118;28;20212;-70
2022/12/03 00:15:10;;;;;;;28.07;22.43;;;;;;;-0.25;100.00;97226.06;5020537;28;20227;-71
2022/12/03 00:17:38;;;;;;;31.40;23.60;;;;;;;-0.29;100.00;97222.91;4980621;28;20601;-69
2022/12/03 00:20:08;;;;;;;30.07;23.73;;;;;;;-0.34;100.00;97223.22;5023881;28;20218;-71
2022/12/03 00:22:35;;;;;;;27.40;23.03;;;;;;;-0.25;100.00;97218.25;4976506;28;20613;-69
2022/12/03 00:25:06;;;;;;;30.53;23.40;;;;;;;-0.26;100.00;97214.00;5023341;28;20248;-69
2022/12/03 00:27:34;;;;;;;28.87;24.00;;;;;;;-0.27;100.00;97214.94;5027606;28;20246;-71
2022/12/03 00:30:01;;;;;;;28.03;22.30;;;;;;;-0.30;100.00;97210.81;5026260;28;20414;-70
2022/12/03 00:32:29;;;;;;;28.20;22.73;;;;;;;-0.41;100.00;97211.63;4971967;28;20208;-72
2022/12/03 00:34:57;;;;;;;28.97;21.97;;;;;;;-0.34;100.00;97212.81;5029229;28;20243;-71
2022/12/03 00:37:25;;;;;;;27.30;21.93;;;;;;;-0.24;100.00;97206.91;5006656;28;20855;-71
2022/12/03 00:39:52;;;;;;;27.80;22.43;;;;;;;-0.23;100.00;97205.97;5006742;28;20662;-69
2022/12/03 00:42:21;;;;;;;29.77;21.73;;;;;;;-0.21;100.00;97206.66;5027401;28;20399;-71
2022/12/03 00:44:49;;;;;;;28.37;23.47;;;;;;;-0.23;100.00;97200.75;5030494;28;20383;-70
2022/12/03 00:47:17;;;;;;;27.37;22.27;;;;;;;-0.15;100.00;97209.66;4971406;28;21470;-71
2022/12/03 00:49:45;;;;;;;28.87;23.33;;;;;;;-0.15;100.00;97207.03;5026632;28;20214;-71
2022/12/03 00:52:13;;;;;;;26.00;21.13;;;;;;;-0.09;100.00;97215.34;4953335;28;20230;-70
2022/12/03 00:54:41;;;;;;;26.07;22.10;;;;;;;-0.10;100.00;97208.47;5023421;28;20222;-69
2022/12/03 00:57:08;;;;;;;31.00;23.40;;;;;;;-0.14;100.00;97200.06;5007429;28;20353;-71
2022/12/03 00:59:38;;;;;;;27.77;21.93;;;;;;;-0.29;100.00;97204.66;5026034;28;20208;-70
2022/12/03 01:02:06;;;;;;;26.90;21.63;;;;;;;-0.31;100.00;97209.97;5023662;28;20430;-70
2022/12/03 01:04:34;;;;;;;25.37;20.83;;;;;;;-0.25;100.00;97215.66;5025003;28;20290;-72
2022/12/03 01:07:01;;;;;;;27.27;21.67;;;;;;;-0.21;100.00;97207.50;4970347;28;20256;-71
2022/12/03 01:09:30;;;;;;;25.90;20.97;;;;;;;-0.19;100.00;97215.19;5031779;28;20207;-72
2022/12/03 01:11:58;;;;;;;26.83;21.83;;;;;;;-0.26;100.00;97208.78;5007944;28;20941;-70
2022/12/03 01:14:25;;;;;;;25.63;21.10;;;;;;;-0.36;100.00;97204.28;5024832;28;20206;-72
2022/12/03 01:16:54;;;;;;;25.47;19.40;;;;;;;-0.27;100.00;97207.13;5024021;28;20633;-70
2022/12/03 01:19:23;;;;;;;27.80;21.30;;;;;;;-0.13;100.00;97206.09;5027492;28;20290;-69
2022/12/03 01:21:51;;;;;;;24.80;21.30;;;;;;;-0.15;100.00;97211.44;4973113;28;20571;-69
2022/12/03 01:24:19;;;;;;;26.57;21.27;;;;;;;-0.12;100.00;97200.78;5015244;28;20207;-70
2022/12/03 01:26:47;;;;;;;28.23;20.27;;;;;;;-0.28;100.00;97208.94;5030639;28;20678;-68
2022/12/03 01:29:15;;;;;;;28.93;21.00;;;;;;;-0.21;100.00;97202.31;5008276;28;20560;-68
2022/12/03 01:34:30;;;;;;;24.70;20.50;;;;;;;-0.30;100.00;97213.41;5028878;28;20557;-70
2022/12/03 01:36:58;;;;;;;27.83;21.03;;;;;;;-0.33;100.00;97222.28;4994749;28;21015;-69
2022/12/03 01:39:26;;;;;;;26.00;20.43;;;;;;;-0.33;100.00;97208.44;4980764;28;20208;-69
2022/12/03 01:41:54;;;;;;;27.60;22.40;;;;;;;-0.37;100.00;97215.66;5024417;28;20255;-70
2022/12/03 01:44:23;;;;;;;27.47;21.93;;;;;;;-0.40;100.00;97210.66;5001322;28;20471;-68
2022/12/03 01:46:53;;;;;;;27.63;21.30;;;;;;;-0.38;100.00;97213.97;5027726;28;20449;-72
2022/12/03 01:49:22;;;;;;;27.80;21.60;;;;;;;-0.44;100.00;97214.44;5026710;28;20718;-69
2022/12/03 01:51:52;;;;;;;28.67;21.63;;;;;;;-0.50;100.00;97210.50;5017111;28;20408;-69
2022/12/03 01:54:22;;;;;;;26.97;21.20;;;;;;;-0.52;100.00;97214.19;4977854;28;20697;-70
2022/12/03 01:56:50;;;;;;;27.93;23.40;;;;;;;-0.58;100.00;97210.25;5018917;28;20730;-69
2022/12/03 01:59:19;;;;;;;26.97;21.47;;;;;;;-0.61;100.00;97208.69;5028640;28;20677;-70
2022/12/03 02:01:47;;;;;;;27.40;22.17;;;;;;;-0.60;100.00;97207.75;4996700;28;20353;-71
2022/12/03 02:04:17;;;;;;;28.17;21.67;;;;;;;-0.69;100.00;97207.63;5019472;28;20195;-69
2022/12/03 02:06:45;;;;;;;25.70;21.70;;;;;;;-0.64;100.00;97210.72;5024735;28;20449;-69
2022/12/03 02:09:14;;;;;;;26.43;22.13;;;;;;;-0.66;100.00;97202.19;5028190;28;20196;-70
2022/12/03 02:11:44;;;;;;;28.87;22.30;;;;;;;-0.71;100.00;97207.72;4977455;28;20330;-69
2022/12/03 02:14:16;;;;;;;28.27;21.50;;;;;;;-0.71;100.00;97209.50;5032923;28;20199;-71
2022/12/03 02:16:45;;;;;;;26.50;22.20;;;;;;;-0.71;100.00;97205.13;5000668;28;20769;-73
2022/12/03 02:19:17;;;;;;;28.30;22.00;;;;;;;-0.73;100.00;97202.66;5019149;28;20997;-70
2022/12/03 02:21:51;;;;;;;28.43;22.33;;;;;;;-0.68;100.00;97206.69;5021199;28;20602;-71
2022/12/03 02:24:24;;;;;;;27.93;21.70;;;;;;;-0.77;100.00;97193.38;5027380;28;20211;-69
2022/12/03 02:26:53;;;;;;;31.47;23.30;;;;;;;-0.77;100.00;97197.78;4989518;28;20438;-71
2022/12/03 02:29:21;;;;;;;27.90;22.80;;;;;;;-0.80;100.00;97203.19;5016566;28;20379;-70
2022/12/03 02:31:49;;;;;;;32.57;23.33;;;;;;;-0.82;100.00;97202.47;5002064;28;20485;-72
2022/12/03 02:34:37;;;;;;;28.33;22.27;;;;;;;-0.88;100.00;97208.94;5020308;28;20199;-72
2022/12/03 02:37:09;;;;;;;28.80;22.13;;;;;;;-0.90;100.00;97210.84;5022298;28;20208;-72
2022/12/03 02:39:38;;;;;;;30.20;22.73;;;;;;;-0.87;100.00;97213.22;5031584;28;21203;-70
2022/12/03 02:44:53;;;;;;;28.40;22.27;;;;;;;-0.83;100.00;97206.03;5022637;28;20702;-70
2022/12/03 02:47:23;;;;;;;28.83;22.23;;;;;;;-0.85;100.00;97205.31;5002570;28;20465;-69
2022/12/03 02:49:52;;;;;;;31.40;24.07;;;;;;;-0.84;100.00;97210.38;5027361;28;20225;-73
2022/12/03 02:52:20;;;;;;;29.07;22.73;;;;;;;-0.85;100.00;97210.50;5022479;28;20274;-68
2022/12/03 02:54:48;;;;;;;30.47;22.60;;;;;;;-0.89;100.00;97209.91;5023110;28;20417;-70
2022/12/03 02:57:17;;;;;;;26.83;21.03;;;;;;;-0.89;100.00;97208.13;4982548;28;20452;-70
2022/12/03 02:59:45;;;;;;;27.53;22.57;;;;;;;-0.87;100.00;97210.59;4938245;28;20219;-71
2022/12/03 03:02:14;;;;;;;27.93;22.03;;;;;;;-0.87;100.00;97208.00;5017568;28;20230;-70
2022/12/03 03:04:42;;;;;;;28.10;21.90;;;;;;;-0.83;100.00;97216.44;4989205;28;20328;-72
2022/12/03 03:07:10;;;;;;;27.50;21.47;;;;;;;-0.81;100.00;97209.34;4994314;28;20801;-66
2022/12/03 03:09:38;;;;;;;27.17;21.43;;;;;;;-0.81;100.00;97206.75;4999662;28;20211;-70
2022/12/03 03:12:06;;;;;;;27.13;21.50;;;;;;;-0.83;100.00;97216.44;5025056;28;20512;-68
2022/12/03 03:14:35;;;;;;;27.47;22.00;;;;;;;-0.81;100.00;97220.56;4976985;28;20214;-70
2022/12/03 03:17:03;;;;;;;28.43;22.07;;;;;;;-0.81;100.00;97222.34;5019256;28;20208;-68
2022/12/03 03:19:31;;;;;;;29.33;23.03;;;;;;;-0.79;100.00;97223.06;5022083;28;20685;-70
2022/12/03 03:21:58;;;;;;;30.27;24.03;;;;;;;-0.77;100.00;97221.19;5000601;28;20234;-69
2022/12/03 03:24:26;;;;;;;30.40;21.47;;;;;;;-0.76;100.00;97231.50;4998638;28;21727;-69
2022/12/03 03:26:54;;;;;;;27.90;21.63;;;;;;;-0.73;100.00;97222.63;5027796;28;20662;-69
2022/12/03 03:29:22;;;;;;;26.83;21.17;;;;;;;-0.77;100.00;97221.19;4975794;28;20689;-70
2022/12/03 03:31:51;;;;;;;25.60;20.90;;;;;;;-0.81;100.00;97228.38;5023636;28;20203;-70
2022/12/03 03:34:19;;;;;;;25.77;21.27;;;;;;;-0.80;100.00;97222.22;5027683;28;20696;-70
2022/12/03 03:36:47;;;;;;;26.90;22.03;;;;;;;-0.81;100.00;97217.97;4999647;28;20472;-68
2022/12/03 03:39:15;;;;;;;27.30;21.63;;;;;;;-0.71;100.00;97220.72;4998170;28;20890;-71
2022/12/03 03:41:45;;;;;;;30.57;21.33;;;;;;;-0.76;100.00;97221.09;5025824;28;20212;-70
2022/12/03 03:44:14;;;;;;;25.03;19.70;;;;;;;-0.78;100.00;97225.53;4979392;28;20861;-70
2022/12/03 03:46:42;;;;;;;23.83;21.10;;;;;;;-0.76;100.00;97223.69;5019416;28;20237;-71
2022/12/03 03:49:12;;;;;;;24.50;20.73;;;;;;;-0.84;100.00;97223.41;4999628;28;20208;-73
2022/12/03 03:51:40;;;;;;;24.77;19.97;;;;;;;-0.81;100.00;97212.75;4994847;28;20432;-72
2022/12/03 03:54:08;;;;;;;25.10;20.53;;;;;;;-0.75;100.00;97221.91;5025249;28;20229;-71
2022/12/03 03:56:36;;;;;;;26.30;21.57;;;;;;;-0.74;100.00;97215.75;5000357;28;20235;-71
2022/12/03 03:59:04;;;;;;;26.73;21.67;;;;;;;-0.78;100.00;97219.53;5029759;28;20207;-72
2022/12/03 04:01:32;;;;;;;25.50;20.63;;;;;;;-0.76;100.00;97226.28;4971188;28;20216;-70
2022/12/03 04:04:00;;;;;;;29.83;22.40;;;;;;;-0.82;100.00;97218.91;5024386;28;20621;-69
2022/12/03 04:06:29;;;;;;;27.03;21.57;;;;;;;-0.76;100.00;97228.91;5011673;28;20223;-70
2022/12/03 04:08:57;;;;;;;29.23;21.73;;;;;;;-0.66;100.00;97223.81;5015272;28;20282;-71
2022/12/03 04:14:10;;;;;;;26.20;21.30;;;;;;;-0.83;100.00;97214.66;5031878;28;20291;-71
2022/12/03 04:16:37;;;;;;;25.87;21.70;;;;;;;-0.78;100.00;97216.94;4980278;28;20402;-71
2022/12/03 04:19:05;;;;;;;26.53;21.27;;;;;;;-0.81;100.00;97214.53;5005824;28;20537;-69
2022/12/03 04:24:20;;;;;;;25.03;21.10;;;;;;;-0.81;100.00;97215.38;4977581;28;20525;-69
2022/12/03 04:29:29;;;;;;;27.20;19.83;;;;;;;-0.82;100.00;97207.69;5003177;28;20438;-69
2022/12/03 04:37:29;;;;;;;25.90;20.90;;;;;;;-0.88;100.00;97201.16;5028118;28;20207;-71
2022/12/03 04:39:57;;;;;;;26.70;20.80;;;;;;;-0.86;100.00;97198.44;5002314;28;20203;-71
2022/12/03 04:42:24;;;;;;;31.37;23.30;;;;;;;-0.88;100.00;97198.53;4983356;28;20210;-68
2022/12/03 04:44:52;;;;;;;25.63;20.27;;;;;;;-0.89;100.00;97202.94;5030375;28;20238;-71
2022/12/03 04:47:21;;;;;;;26.17;21.60;;;;;;;-0.90;100.00;97211.69;4997555;28;20258;-68
2022/12/03 04:49:50;;;;;;;28.20;21.77;;;;;;;-0.92;100.00;97204.91;5006906;28;20227;-71
2022/12/03 04:52:19;;;;;;;27.23;21.23;;;;;;;-0.90;100.00;97209.09;5025213;28;20202;-69
2022/12/03 04:54:48;;;;;;;28.60;22.33;;;;;;;-0.90;100.00;97216.88;5010369;28;20199;-70
2022/12/03 04:57:17;;;;;;;26.93;21.83;;;;;;;-0.90;100.00;97205.63;5021927;28;20203;-68
2022/12/03 04:59:45;;;;;;;28.83;22.50;;;;;;;-0.92;100.00;97204.91;5021401;28;20495;-71
2022/12/03 05:02:12;;;;;;;32.57;23.17;;;;;;;-0.92;100.00;97204.91;5002684;28;20196;-68
2022/12/03 05:04:40;;;;;;;31.13;22.73;;;;;;;-0.91;100.00;97198.78;5028110;28;20230;-68
2022/12/03 05:07:07;;;;;;;30.03;21.70;;;;;;;-0.89;100.00;97199.50;4967189;28;20203;-70
2022/12/03 05:09:35;;;;;;;27.83;21.20;;;;;;;-0.91;100.00;97207.41;5036911;28;20210;-73
2022/12/03 05:12:05;;;;;;;29.13;21.93;;;;;;;-0.96;100.00;97198.28;5004024;28;20218;-69
2022/12/03 05:14:32;;;;;;;30.13;21.33;;;;;;;-0.90;100.00;97203.88;5001737;28;20942;-72
2022/12/03 05:17:00;;;;;;;28.10;21.53;;;;;;;-0.87;100.00;97192.41;5026407;28;20980;-70
2022/12/03 05:22:09;;;;;;;27.77;21.63;;;;;;;-0.82;100.00;97189.47;4998179;28;20241;-69
2022/12/03 05:24:37;;;;;;;27.93;21.13;;;;;;;-0.83;100.00;97186.03;5028014;28;20223;-70
2022/12/03 05:27:06;;;;;;;27.10;20.90;;;;;;;-0.83;100.00;97180.00;5025696;28;20198;-71
2022/12/03 05:29:33;;;;;;;24.67;19.37;;;;;;;-0.79;100.00;97174.44;4998523;28;21171;-69
2022/12/03 05:32:01;;;;;;;25.23;20.47;;;;;;;-0.75;100.00;97180.28;5022825;28;20399;-69
2022/12/03 05:34:29;;;;;;;23.40;20.23;;;;;;;-0.77;100.00;97185.56;5029239;28;20191;-68
2022/12/03 05:36:56;;;;;;;25.87;20.87;;;;;;;-0.66;100.00;97195.19;4969178;28;20260;-71
2022/12/03 05:39:24;;;;;;;24.93;19.37;;;;;;;-0.66;100.00;97194.38;5032905;28;20200;-69
2022/12/03 05:44:38;;;;;;;24.47;20.10;;;;;;;-0.73;100.00;97202.66;5007459;28;20231;-70
2022/12/03 05:47:06;;;;;;;29.60;20.40;;;;;;;-0.76;100.00;97210.69;5027785;28;20210;-69
2022/12/03 05:49:33;;;;;;;26.57;21.23;;;;;;;-0.70;100.00;97208.56;5031387;28;20219;-68
2022/12/03 05:52:01;;;;;;;25.13;19.07;;;;;;;-0.69;100.00;97213.66;4999549;28;20207;-71
2022/12/03 05:54:28;;;;;;;23.57;19.87;;;;;;;-0.61;100.00;97210.50;5026100;28;20195;-71
2022/12/03 05:56:56;;;;;;;24.43;20.37;;;;;;;-0.57;100.00;97213.66;5022120;28;20235;-70
2022/12/03 05:59:24;;;;;;;20.83;18.13;;;;;;;-0.63;100.00;97210.59;5012206;28;20199;-70
2022/12/03 06:01:53;;;;;;;26.07;18.97;;;;;;;-0.62;100.00;97214.03;5020545;28;20203;-70
2022/12/03 06:04:20;;;;;;;26.17;19.77;;;;;;;-0.62;100.00;97207.03;5001785;28;20216;-70
2022/12/03 06:06:48;;;;;;;22.73;19.87;;;;;;;-0.58;100.00;97210.25;4987062;28;20228;-71
2022/12/03 06:09:16;;;;;;;27.00;21.97;;;;;;;-0.55;100.00;97212.63;5022268;28;20902;-70
2022/12/03 06:11:44;;;;;;;24.30;18.97;;;;;;;-0.69;100.00;97207.63;5027739;28;20203;-71
2022/12/03 06:14:11;;;;;;;23.67;20.40;;;;;;;-0.63;100.00;97214.97;5006091;28;20203;-69
2022/12/03 06:16:39;;;;;;;24.07;20.93;;;;;;;-0.57;100.00;97217.13;5030238;28;21006;-71
2022/12/03 06:19:08;;;;;;;26.50;20.77;;;;;;;-0.60;100.00;97212.97;5031443;28;20214;-71
2022/12/03 06:21:35;;;;;;;28.27;20.20;;;;;;;-0.52;100.00;97224.59;5020265;28;20231;-69
2022/12/03 06:24:03;;;;;;;23.70;19.37;;;;;;;-0.43;100.00;97231.72;4998379;28;20231;-70
2022/12/03 06:26:31;;;;;;;23.07;19.43;;;;;;;-0.37;100.00;97220.84;5022056;28;20212;-70
2022/12/03 06:28:59;;;;;;;25.03;18.93;;;;;;;-0.30;100.00;97213.41;5021047;28;20204;-71
2022/12/03 06:31:26;;;;;;;26.40;21.73;;;;;;;-0.37;100.00;97213.03;4999938;28;20215;-72
2022/12/03 06:33:54;;;;;;;27.80;21.83;;;;;;;-0.50;100.00;97207.09;5021248;28;20227;-71
2022/12/03 06:36:24;;;;;;;23.93;19.57;;;;;;;-0.47;100.00;97215.50;5019925;28;20651;-71
2022/12/03 06:38:52;;;;;;;27.10;21.33;;;;;;;-0.51;100.00;97224.47;4981656;28;20211;-71
2022/12/03 06:41:20;;;;;;;25.37;20.50;;;;;;;-0.57;100.00;97229.28;5025946;28;20214;-69
2022/12/03 06:43:47;;;;;;;25.10;19.43;;;;;;;-0.44;100.00;97223.06;5028359;28;20192;-70
2022/12/03 06:46:30;;;;;;;25.73;19.27;;;;;;;-0.52;100.00;97224.59;4996030;28;20969;-71
2022/12/03 06:49:00;;;;;;;25.57;19.87;;;;;;;-0.64;100.00;97224.53;5016653;28;20773;-69
2022/12/03 06:51:29;;;;;;;24.30;18.70;;;;;;;-0.66;100.00;97223.81;5022322;28;20725;-72
2022/12/03 06:53:56;;;;;;;25.17;18.43;;;;;;;-0.63;100.00;97220.19;4995529;28;20204;-70
2022/12/03 06:56:24;;;;;;;25.60;20.07;;;;;;;-0.63;100.00;97218.41;5003152;28;21086;-71
2022/12/03 06:58:59;;;;;;;25.47;20.10;;;;;;;-0.62;100.00;97219.25;5001098;28;20222;-72
2022/12/03 07:01:26;;;;;;;24.87;19.90;;;;;;;-0.61;100.00;97221.72;5012854;28;20199;-69
2022/12/03 07:03:54;;;;;;;27.73;20.93;;;;;;;-0.63;100.00;97217.59;5026955;28;20284;-71
2022/12/03 07:06:22;;;;;;;27.17;19.87;;;;;;;-0.61;100.00;97215.69;5027801;28;20502;-69
2022/12/03 07:08:51;;;;;;;28.27;20.30;;;;;;;-0.63;100.00;97215.78;4991159;28;20219;-70
2022/12/03 07:11:31;;;;;;;26.40;20.77;;;;;;;-0.59;100.00;97230.22;5030499;28;20206;-70
2022/12/03 07:14:01;;;;;;;29.27;20.97;;;;;;;-0.46;100.00;97227.56;4965704;28;20214;-70
2022/12/03 07:16:33;;;;;;;26.33;20.13;;;;;;;-0.47;100.00;97219.88;5003695;28;20219;-67
2022/12/03 07:19:00;;;;;;;26.83;20.07;;;;;;;-0.41;100.00;97229.84;5009215;28;20803;-70
2022/12/03 07:21:29;;;;;;;26.70;20.03;;;;;;;-0.40;100.00;97218.47;5023439;28;20200;-68
2022/12/03 07:23:58;;;;;;;30.07;23.27;;;;;;;-0.48;100.00;97220.81;5012547;28;20455;-70
2022/12/03 07:26:26;;;;;;;23.57;19.30;;;;;;;-0.48;100.00;97215.63;5023900;28;20238;-68
2022/12/03 07:28:54;;;;;;;25.80;19.73;;;;;;;-0.47;100.00;97202.47;4985234;28;20762;-71
2022/12/03 07:31:21;;;;;;;26.57;20.73;;;;;;;-0.43;100.00;97205.69;5023951;28;20214;-67
2022/12/03 07:33:49;;;;;;;25.97;20.47;;;;;;;-0.35;100.00;97199.91;5001081;28;20426;-70
2022/12/03 07:36:17;;;;;;;25.87;19.30;;;;;;;-0.37;100.00;97205.22;5001997;28;20238;-68
2022/12/03 07:38:45;;;;;;;23.27;18.80;;;;;;;-0.46;100.00;97211.13;5005196;28;20502;-69
2022/12/03 07:41:14;;;;;;;24.97;19.50;;;;;;;-0.39;100.00;97203.66;5031229;28;20797;-69
2022/12/03 07:43:43;;;;;;;24.03;18.20;;;;;;;-0.27;100.00;97204.53;4982952;28;20207;-69
2022/12/03 07:46:11;;;;;;;24.27;19.83;;;;;;;-0.30;100.00;97192.59;5028793;28;20227;-68
2022/12/03 07:48:39;;;;;;;26.53;21.03;;;;;;;-0.24;100.00;97194.72;5033036;28;20212;-68
2022/12/03 07:51:07;;;;;;;25.67;19.33;;;;;;;-0.24;100.00;97189.53;4988107;28;20308;-71
2022/12/03 07:53:40;;;;;;;22.63;19.60;;;;;;;-0.10;100.00;97192.84;5007181;28;21002;-69
2022/12/03 07:56:08;;;;;;;26.13;20.50;;;;;;;-0.07;100.00;97197.81;5026544;28;20242;-71
2022/12/03 07:58:37;;;;;;;23.40;19.93;;;;;;;-0.05;100.00;97201.97;4983679;28;20781;-68
2022/12/03 08:01:05;;;;;;;24.37;20.80;;;;;;;0.05;100.00;97196.06;5024895;28;20907;-70
2022/12/03 08:03:33;;;;;;;22.90;19.30;;;;;;;0.04;100.00;97197.00;5024332;28;20207;-70
2022/12/03 08:06:01;;;;;;;23.60;18.60;;;;;;;-0.08;100.00;97189.19;4987296;28;20246;-68
2022/12/03 08:08:29;;;;;;;23.63;17.30;;;;;;;-0.04;100.00;97190.63;5001102;28;20401;-70
2022/12/03 08:10:57;;;;;;;23.43;17.67;;;;;;;-0.16;100.00;97188.94;5007675;28;20218;-68
2022/12/03 08:13:25;;;;;;;22.43;16.93;;;;;;;-0.18;100.00;97183.03;5026638;28;20249;-68
2022/12/03 08:15:55;;;;;;;23.17;18.17;;;;;;;-0.13;100.00;97183.50;4986120;28;20324;-72
2022/12/03 08:18:23;;;;;;;23.23;19.27;;;;;;;-0.11;100.00;97184.22;5024765;28;20562;-69
2022/12/03 08:20:52;;;;;;;24.77;20.27;;;;;;;-0.11;100.00;97176.41;4999804;28;20294;-70
2022/12/03 08:23:21;;;;;;;24.77;19.93;;;;;;;-0.17;100.00;97180.28;5009360;28;20210;-68
2022/12/03 08:25:50;;;;;;;23.87;18.87;;;;;;;-0.08;100.00;97175.31;5001541;28;20226;-70
2022/12/03 08:28:20;;;;;;;22.40;18.87;;;;;;;-0.17;100.00;97172.47;5035448;28;20365;-68
2022/12/03 08:30:55;;;;;;;26.52;23.65;;;;;;;0.01;100.00;97179.84;4976390;28;20674;-70
2022/12/03 08:33:27;;;;;;;24.07;20.70;;;;;;;0.02;100.00;97173.69;5022804;28;20521;-70
2022/12/03 08:35:55;;;;;;;27.07;21.97;;;;;;;0.08;100.00;97169.75;5030543;28;20507;-70
2022/12/03 08:38:24;;;;;;;23.10;20.53;;;;;;;-0.02;100.00;97170.47;4978769;28;20203;-68
2022/12/03 08:40:54;;;;;;;24.77;20.83;;;;;;;0.01;100.00;97171.19;5009221;28;20680;-70
2022/12/03 08:43:23;;;;;;;21.20;18.33;;;;;;;-0.09;100.00;97173.66;5034094;28;20204;-70
2022/12/03 08:45:51;;;;;;;20.50;18.20;;;;;;;-0.05;100.00;97175.94;4981049;28;20318;-71
2022/12/03 08:48:31;;;;;;;22.33;17.63;;;;;;;-0.04;100.00;97182.78;5027817;28;20206;-70
2022/12/03 08:51:02;;;;;;;23.07;18.40;;;;;;;0.10;100.00;97180.91;5030125;28;20206;-70
2022/12/03 08:53:33;;;;;;;21.93;17.37;;;;;;;0.10;100.00;97175.69;4981274;28;20213;-72
2022/12/03 08:56:02;;;;;;;22.70;18.10;;;;;;;-0.06;100.00;97173.44;5004773;28;20617;-71
2022/12/03 08:58:36;;;;;;;19.00;16.70;;;;;;;0.06;100.00;97174.28;5027707;28;20335;-72
2022/12/03 09:01:24;;;;;;;21.10;18.30;;;;;;;0.09;100.00;97180.09;4977094;28;20212;-72
2022/12/03 09:03:54;;;;;;;20.87;17.07;;;;;;;-0.13;100.00;97182.66;5025518;28;20254;-71
2022/12/03 09:06:22;;;;;;;21.47;17.77;;;;;;;0.05;100.00;97177.81;5026487;28;20318;-70
2022/12/03 09:08:50;;;;;;;19.27;17.10;;;;;;;-0.02;100.00;97180.91;4986350;28;20690;-70
2022/12/03 09:11:17;;;;;;;18.60;15.80;;;;;;;-0.08;100.00;97183.13;5006393;28;20219;-70
2022/12/03 09:13:45;;;;;;;18.07;16.17;;;;;;;-0.19;100.00;97181.34;5032094;28;20214;-72
2022/12/03 09:16:12;;;;;;;18.00;15.50;;;;;;;-0.15;100.00;97181.00;5009267;28;20234;-68
2022/12/03 09:18:40;;;;;;;30.10;22.47;;;;;;;-0.02;100.00;97180.06;5044236;28;20219;-70
2022/12/03 09:21:09;;;;;;;23.50;19.03;;;;;;;0.05;100.00;97173.44;4995326;28;20222;-69
2022/12/03 09:23:37;;;;;;;18.53;15.83;;;;;;;-0.05;100.00;97170.72;5031197;28;20279;-71
2022/12/03 09:26:05;;;;;;;22.50;17.57;;;;;;;-0.12;100.00;97179.94;5043021;28;20238;-72
2022/12/03 09:28:33;;;;;;;23.20;18.23;;;;;;;-0.24;100.00;97176.50;5027983;28;20384;-69
2022/12/03 09:31:01;;;;;;;21.57;16.80;;;;;;;-0.12;100.00;97182.56;5038537;28;20192;-72
2022/12/03 09:33:31;;;;;;;18.87;15.83;;;;;;;-0.15;100.00;97188.00;5047001;28;20203;-72
2022/12/03 09:35:58;;;;;;;18.17;16.13;;;;;;;0.01;100.00;97179.00;5020942;28;20215;-73
2022/12/03 09:38:27;;;;;;;18.70;15.00;;;;;;;0.04;100.00;97183.97;5047229;28;20196;-72
2022/12/03 09:40:55;;;;;;;17.67;15.77;;;;;;;0.04;100.00;97192.63;5048429;28;20200;-70
2022/12/03 09:43:22;;;;;;;17.30;15.53;;;;;;;0.12;100.00;97186.81;5027698;28;20203;-71
2022/12/03 09:45:56;;;;;;;16.00;14.30;;;;;;;0.16;100.00;97185.63;5042988;28;20231;-72
2022/12/03 09:48:23;;;;;;;20.00;16.60;;;;;;;0.18;100.00;97190.75;5037340;28;20207;-70
2022/12/03 09:50:52;;;;;;;19.30;15.47;;;;;;;0.21;100.00;97185.28;4995697;28;20679;-71
2022/12/03 09:53:21;;;;;;;16.83;15.13;;;;;;;0.14;100.00;97177.09;5028398;28;20202;-70
2022/12/03 09:55:50;;;;;;;17.27;13.87;;;;;;;0.14;100.00;97174.50;5033648;28;20234;-73
2022/12/03 09:58:19;;;;;;;16.07;14.27;;;;;;;0.06;100.00;97174.28;5007841;28;20204;-71
2022/12/03 10:00:49;;;;;;;16.10;14.33;;;;;;;0.03;100.00;97170.13;5017009;28;20203;-72
2022/12/03 10:03:19;;;;;;;14.67;13.17;;;;;;;0.13;100.00;97176.28;5020346;28;20299;-70
2022/12/03 10:05:53;;;;;;;15.13;13.53;;;;;;;0.14;100.00;97185.75;4981077;28;20606;-69
2022/12/03 10:08:22;;;;;;;15.63;13.93;;;;;;;0.18;100.00;97180.31;5013099;28;20298;-72
2022/12/03 10:10:59;;;;;;;15.43;13.83;;;;;;;0.16;100.00;97170.00;5017081;28;20930;-70
2022/12/03 10:13:29;;;;;;;15.90;14.20;;;;;;;0.01;100.00;97174.63;4992118;28;20211;-71
2022/12/03 10:15:59;;;;;;;15.13;13.53;;;;;;;0.01;100.00;97184.22;5006669;28;21031;-72
2022/12/03 10:18:28;;;;;;;15.37;13.77;;;;;;;-0.03;100.00;97162.78;5026541;28;20204;-72
2022/12/03 10:20:57;;;;;;;15.87;14.17;;;;;;;-0.04;100.00;97174.97;5035389;28;20298;-71
2022/12/03 10:23:28;;;;;;;15.73;13.10;;;;;;;-0.22;100.00;97177.22;4984222;28;20211;-73
2022/12/03 10:25:58;;;;;;;16.07;13.33;;;;;;;-0.19;100.00;97163.97;5026390;28;20224;-72
2022/12/03 10:28:31;;;;;;;14.43;12.93;;;;;;;-0.09;100.00;97168.44;4989124;28;20208;-71
2022/12/03 10:31:00;;;;;;;15.17;13.57;;;;;;;-0.15;100.00;97165.38;4995507;28;20216;-71
2022/12/03 10:33:30;;;;;;;15.40;13.70;;;;;;;0.01;100.00;97159.00;4980897;28;20377;-69
2022/12/03 10:36:14;;;;;;;15.33;13.57;;;;;;;-0.01;100.00;97156.50;5026048;28;20211;-69
2022/12/03 10:38:42;;;;;;;15.20;13.10;;;;;;;-0.01;100.00;97156.50;4990408;28;20211;-71
2022/12/03 10:41:25;;;;;;;13.57;11.83;;;;;;;0.06;100.00;97151.66;5028483;28;20211;-72
2022/12/03 10:43:53;;;;;;;15.97;13.43;;;;;;;0.01;100.00;97148.59;5002886;28;20203;-70
2022/12/03 10:46:22;;;;;;;16.17;14.17;;;;;;;0.04;100.00;97148.34;4998040;28;20224;-72
2022/12/03 10:49:08;;;;;;;16.07;13.90;;;;;;;-0.10;100.00;97154.63;5027117;28;20227;-70
2022/12/03 10:51:37;;;;;;;16.50;13.57;;;;;;;-0.17;100.00;97145.63;5023014;28;20204;-72
2022/12/03 10:54:15;;;;;;;17.67;15.33;;;;;;;-0.21;100.00;97146.78;4974042;28;20231;-70
2022/12/03 10:56:45;;;;;;;15.03;13.33;;;;;;;-0.19;100.00;97134.47;5026089;28;20234;-71
2022/12/03 10:59:15;;;;;;;13.63;11.83;;;;;;;-0.21;100.00;97144.16;5001165;28;20215;-70
2022/12/03 11:01:43;;;;;;;14.67;12.83;;;;;;;-0.13;100.00;97135.78;5003608;28;20203;-72
2022/12/03 11:04:19;;;;;;;13.43;11.40;;;;;;;-0.20;100.00;97135.41;5020502;28;20200;-71
2022/12/03 11:06:48;;;;;;;13.40;12.10;;;;;;;-0.17;100.00;97127.38;5025409;28;20234;-71
2022/12/03 11:09:19;;;;;;;16.33;12.13;;;;;;;-0.12;100.00;97130.47;4977644;28;21062;-71
2022/12/03 11:11:49;;;;;;;13.73;12.33;;;;;;;-0.04;100.00;97129.84;5026228;28;20208;-72
2022/12/03 11:15:05;;;;;;;14.77;12.40;;;;;;;-0.08;100.00;97120.63;5005924;28;20212;-70
2022/12/03 11:17:43;;;;;;;14.00;11.90;;;;;;;-0.16;100.00;97123.84;5000838;28;20216;-72
2022/12/03 11:20:28;;;;;;;13.47;12.17;;;;;;;-0.10;100.00;97127.72;5028514;28;20207;-71
2022/12/03 11:22:57;;;;;;;12.33;11.03;;;;;;;-0.17;100.00;97104.75;5025134;28;20585;-71
2022/12/03 11:25:46;;;;;;;12.57;11.23;;;;;;;-0.11;100.00;97113.03;4993648;28;20236;-72
2022/12/03 11:28:58;;;;;;;13.70;11.40;;;;;;;-0.16;100.00;97113.41;4968724;28;20774;-72
2022/12/03 11:31:38;;;;;;;15.83;12.17;;;;;;;-0.21;100.00;97123.34;5024782;28;21323;-72
2022/12/03 11:34:48;;;;;;;13.33;11.90;;;;;;;-0.28;100.00;97115.19;5003641;28;20852;-73
2022/12/03 11:37:27;;;;;;;14.37;12.90;;;;;;;-0.18;100.00;97112.72;5000052;28;20475;-70
2022/12/03 11:40:16;;;;;;;17.27;14.53;;;;;;;-0.17;100.00;97103.94;5030067;28;20437;-71
2022/12/03 11:42:46;;;;;;;13.30;11.97;;;;;;;-0.22;100.00;97099.09;5002711;28;20460;-69
2022/12/03 11:45:18;;;;;;;14.83;13.20;;;;;;;-0.24;100.00;97103.59;5022771;28;20285;-71